Portada
Imágenes satélite Pronóstico 15 díasClimaPredicción Marítima Ciclones Rayo AeropuertosFAQ Noticias Acerca
El tiempo : Europa África América del Norte América del Sur Asia Australia-Oceanía Otros
Idiomas Contacto

Chichén Itzá, México

latitud: 20-38-30N, longitud: 088-26-58W, altitud: 31 m


METAR: MMCT 012043Z 12010KT 8SM SCT015 OVC100 30/26 A2993 RMK 8/42/ MSGTX MMMD
short-TAF: falta
long-TAF: falta

Hora: 08:57 (13:57 UTC)

Observación

El informe se hizo hace 17 horas y 14 minutos, a las 20:43 UTC  
Viento 10 kt del este-sureste
Temperatura 30°C
Humedad 79%
Presión 1014 hPa
Visibilidad 12.9 km
Nubes dispersas a una altura de 1500 ft
Cielo cubierto a una altura de 10000 ft

Cambiar las unidades
La información que se ofrece en estas páginas está sujeta a una cláusula de exención de responsabilidad
El tiempo : Europa África América del Norte América del Sur Asia Australia-Oceanía Otros
Imágenes satélite Pronóstico 15 díasClimaPredicción Marítima Ciclones Rayo AeropuertosFAQ Idiomas Contacto Noticias Acerca